sensor_id;sensor_type;location;lat;lon;timestamp;P1;durP1;ratioP1;P2;durP2;ratioP2
47309;SDS011;33046;52.270;6.832;2023-07-29T00:00:12;7.13;;;6.43;;
47309;SDS011;33046;52.270;6.832;2023-07-29T00:02:20;5.90;;;5.38;;
47309;SDS011;33046;52.270;6.832;2023-07-29T00:04:28;7.20;;;5.88;;
47309;SDS011;33046;52.270;6.832;2023-07-29T00:06:35;6.30;;;5.47;;
47309;SDS011;33046;52.270;6.832;2023-07-29T00:08:42;6.45;;;5.85;;
47309;SDS011;33046;52.270;6.832;2023-07-29T00:10:49;7.25;;;6.07;;
47309;SDS011;33046;52.270;6.832;2023-07-29T00:12:55;5.75;;;5.30;;
47309;SDS011;33046;52.270;6.832;2023-07-29T00:15:02;6.78;;;5.63;;
47309;SDS011;33046;52.270;6.832;2023-07-29T00:17:10;6.05;;;5.55;;
47309;SDS011;33046;52.270;6.832;2023-07-29T00:19:17;5.55;;;4.93;;
47309;SDS011;33046;52.270;6.832;2023-07-29T00:21:25;6.10;;;5.50;;
47309;SDS011;33046;52.270;6.832;2023-07-29T00:23:32;6.60;;;6.00;;
47309;SDS011;33046;52.270;6.832;2023-07-29T00:25:38;13.20;;;6.50;;
47309;SDS011;33046;52.270;6.832;2023-07-29T00:27:45;7.03;;;6.05;;
47309;SDS011;33046;52.270;6.832;2023-07-29T00:29:52;6.35;;;5.50;;
47309;SDS011;33046;52.270;6.832;2023-07-29T00:31:59;6.07;;;5.47;;
47309;SDS011;33046;52.270;6.832;2023-07-29T00:34:06;6.07;;;5.30;;
47309;SDS011;33046;52.270;6.832;2023-07-29T00:36:15;5.40;;;5.00;;
47309;SDS011;33046;52.270;6.832;2023-07-29T00:38:23;5.78;;;5.28;;
47309;SDS011;33046;52.270;6.832;2023-07-29T00:40:30;5.18;;;4.78;;
47309;SDS011;33046;52.270;6.832;2023-07-29T00:42:40;5.43;;;4.93;;
47309;SDS011;33046;52.270;6.832;2023-07-29T00:44:48;5.03;;;4.57;;
47309;SDS011;33046;52.270;6.832;2023-07-29T00:46:54;4.35;;;3.97;;
47309;SDS011;33046;52.270;6.832;2023-07-29T00:49:01;3.65;;;3.35;;
47309;SDS011;33046;52.270;6.832;2023-07-29T00:51:08;5.50;;;3.55;;
47309;SDS011;33046;52.270;6.832;2023-07-29T00:53:15;3.45;;;3.15;;
47309;SDS011;33046;52.270;6.832;2023-07-29T00:55:24;3.75;;;3.45;;
47309;SDS011;33046;52.270;6.832;2023-07-29T00:57:31;3.85;;;3.40;;
47309;SDS011;33046;52.270;6.832;2023-07-29T00:59:39;4.53;;;3.30;;
47309;SDS011;33046;52.270;6.832;2023-07-29T01:01:46;3.65;;;3.35;;
47309;SDS011;33046;52.270;6.832;2023-07-29T01:03:53;3.95;;;3.60;;
47309;SDS011;33046;52.270;6.832;2023-07-29T01:06:05;3.35;;;2.85;;
47309;SDS011;33046;52.270;6.832;2023-07-29T01:08:20;3.67;;;3.35;;
47309;SDS011;33046;52.270;6.832;2023-07-29T01:10:34;4.13;;;3.65;;
47309;SDS011;33046;52.270;6.832;2023-07-29T01:12:48;3.53;;;3.03;;
47309;SDS011;33046;52.270;6.832;2023-07-29T01:15:04;4.45;;;4.05;;
47309;SDS011;33046;52.270;6.832;2023-07-29T01:17:20;4.93;;;3.25;;
47309;SDS011;33046;52.270;6.832;2023-07-29T01:19:38;4.68;;;3.45;;
47309;SDS011;33046;52.270;6.832;2023-07-29T01:21:51;4.85;;;3.75;;
47309;SDS011;33046;52.270;6.832;2023-07-29T01:24:00;4.75;;;3.85;;
47309;SDS011;33046;52.270;6.832;2023-07-29T01:26:07;6.03;;;3.22;;
47309;SDS011;33046;52.270;6.832;2023-07-29T01:28:14;4.43;;;3.38;;
47309;SDS011;33046;52.270;6.832;2023-07-29T01:30:21;3.88;;;3.50;;
47309;SDS011;33046;52.270;6.832;2023-07-29T01:32:34;4.18;;;3.10;;
47309;SDS011;33046;52.270;6.832;2023-07-29T01:34:47;3.97;;;3.67;;
47309;SDS011;33046;52.270;6.832;2023-07-29T01:37:00;6.03;;;3.92;;
47309;SDS011;33046;52.270;6.832;2023-07-29T01:39:10;5.95;;;3.90;;
47309;SDS011;33046;52.270;6.832;2023-07-29T01:41:18;5.55;;;4.35;;
47309;SDS011;33046;52.270;6.832;2023-07-29T01:43:26;4.75;;;4.38;;
47309;SDS011;33046;52.270;6.832;2023-07-29T01:45:34;4.38;;;3.97;;
47309;SDS011;33046;52.270;6.832;2023-07-29T01:47:41;5.78;;;4.05;;
47309;SDS011;33046;52.270;6.832;2023-07-29T01:49:48;4.32;;;4.03;;
47309;SDS011;33046;52.270;6.832;2023-07-29T01:51:55;4.68;;;4.28;;
47309;SDS011;33046;52.270;6.832;2023-07-29T01:54:02;5.05;;;4.05;;
47309;SDS011;33046;52.270;6.832;2023-07-29T01:56:10;6.20;;;4.63;;
47309;SDS011;33046;52.270;6.832;2023-07-29T01:58:21;4.82;;;4.43;;
47309;SDS011;33046;52.270;6.832;2023-07-29T02:00:28;4.93;;;4.28;;
47309;SDS011;33046;52.270;6.832;2023-07-29T02:02:36;8.70;;;4.70;;
47309;SDS011;33046;52.270;6.832;2023-07-29T02:04:43;6.28;;;4.75;;
47309;SDS011;33046;52.270;6.832;2023-07-29T02:06:49;5.13;;;4.40;;
47309;SDS011;33046;52.270;6.832;2023-07-29T02:08:56;4.55;;;4.03;;
47309;SDS011;33046;52.270;6.832;2023-07-29T02:11:03;4.60;;;4.18;;
47309;SDS011;33046;52.270;6.832;2023-07-29T02:13:11;4.32;;;3.97;;
47309;SDS011;33046;52.270;6.832;2023-07-29T02:15:18;6.22;;;4.20;;
47309;SDS011;33046;52.270;6.832;2023-07-29T02:17:25;5.13;;;4.65;;
47309;SDS011;33046;52.270;6.832;2023-07-29T02:19:32;4.75;;;4.35;;
47309;SDS011;33046;52.270;6.832;2023-07-29T02:21:39;5.57;;;3.80;;
47309;SDS011;33046;52.270;6.832;2023-07-29T02:23:46;4.43;;;4.13;;
47309;SDS011;33046;52.270;6.832;2023-07-29T02:25:53;5.15;;;4.68;;
47309;SDS011;33046;52.270;6.832;2023-07-29T02:28:00;4.38;;;4.03;;
47309;SDS011;33046;52.270;6.832;2023-07-29T02:30:08;4.28;;;3.88;;
47309;SDS011;33046;52.270;6.832;2023-07-29T02:32:16;7.85;;;3.90;;
47309;SDS011;33046;52.270;6.832;2023-07-29T02:34:23;3.92;;;3.45;;
47309;SDS011;33046;52.270;6.832;2023-07-29T02:36:30;7.85;;;3.83;;
47309;SDS011;33046;52.270;6.832;2023-07-29T02:38:37;4.55;;;4.15;;
47309;SDS011;33046;52.270;6.832;2023-07-29T02:40:45;5.00;;;3.60;;
47309;SDS011;33046;52.270;6.832;2023-07-29T02:42:51;3.78;;;3.38;;
47309;SDS011;33046;52.270;6.832;2023-07-29T02:44:58;3.80;;;3.47;;
47309;SDS011;33046;52.270;6.832;2023-07-29T02:47:07;4.40;;;4.00;;
47309;SDS011;33046;52.270;6.832;2023-07-29T02:49:14;4.68;;;3.80;;
47309;SDS011;33046;52.270;6.832;2023-07-29T02:51:20;4.60;;;4.20;;
47309;SDS011;33046;52.270;6.832;2023-07-29T02:53:27;6.15;;;3.22;;
47309;SDS011;33046;52.270;6.832;2023-07-29T02:55:34;4.10;;;3.53;;
47309;SDS011;33046;52.270;6.832;2023-07-29T02:57:41;3.95;;;3.55;;
47309;SDS011;33046;52.270;6.832;2023-07-29T02:59:48;4.32;;;3.92;;
47309;SDS011;33046;52.270;6.832;2023-07-29T03:01:55;4.85;;;4.45;;
47309;SDS011;33046;52.270;6.832;2023-07-29T03:04:03;4.30;;;3.75;;
47309;SDS011;33046;52.270;6.832;2023-07-29T03:06:11;5.13;;;3.88;;
47309;SDS011;33046;52.270;6.832;2023-07-29T03:08:20;5.00;;;4.50;;
47309;SDS011;33046;52.270;6.832;2023-07-29T03:10:27;4.07;;;3.65;;
47309;SDS011;33046;52.270;6.832;2023-07-29T03:12:34;5.22;;;3.95;;
47309;SDS011;33046;52.270;6.832;2023-07-29T03:14:41;4.60;;;4.20;;
47309;SDS011;33046;52.270;6.832;2023-07-29T03:16:48;4.22;;;3.83;;
47309;SDS011;33046;52.270;6.832;2023-07-29T03:18:54;4.18;;;3.17;;
47309;SDS011;33046;52.270;6.832;2023-07-29T03:21:03;5.18;;;4.40;;
47309;SDS011;33046;52.270;6.832;2023-07-29T03:23:10;4.55;;;4.15;;
47309;SDS011;33046;52.270;6.832;2023-07-29T03:25:17;5.45;;;4.95;;
47309;SDS011;33046;52.270;6.832;2023-07-29T03:27:24;6.60;;;4.38;;
47309;SDS011;33046;52.270;6.832;2023-07-29T03:29:31;5.25;;;4.78;;
47309;SDS011;33046;52.270;6.832;2023-07-29T03:31:38;10.05;;;5.10;;
47309;SDS011;33046;52.270;6.832;2023-07-29T03:33:45;4.60;;;3.42;;
47309;SDS011;33046;52.270;6.832;2023-07-29T03:35:53;4.50;;;4.20;;
47309;SDS011;33046;52.270;6.832;2023-07-29T03:38:01;5.07;;;4.68;;
47309;SDS011;33046;52.270;6.832;2023-07-29T03:40:08;4.97;;;4.57;;
47309;SDS011;33046;52.270;6.832;2023-07-29T03:42:15;6.30;;;4.65;;
47309;SDS011;33046;52.270;6.832;2023-07-29T03:44:23;5.32;;;4.30;;
47309;SDS011;33046;52.270;6.832;2023-07-29T03:46:30;4.55;;;4.07;;
47309;SDS011;33046;52.270;6.832;2023-07-29T03:48:37;4.93;;;4.05;;
47309;SDS011;33046;52.270;6.832;2023-07-29T03:50:44;4.82;;;4.32;;
47309;SDS011;33046;52.270;6.832;2023-07-29T03:52:51;4.50;;;4.15;;
47309;SDS011;33046;52.270;6.832;2023-07-29T03:54:59;5.40;;;4.90;;
47309;SDS011;33046;52.270;6.832;2023-07-29T03:57:06;5.05;;;4.65;;
47309;SDS011;33046;52.270;6.832;2023-07-29T03:59:13;5.20;;;4.70;;
47309;SDS011;33046;52.270;6.832;2023-07-29T04:01:20;4.65;;;4.25;;
47309;SDS011;33046;52.270;6.832;2023-07-29T04:03:27;5.50;;;4.63;;
47309;SDS011;33046;52.270;6.832;2023-07-29T04:05:34;5.60;;;5.15;;
47309;SDS011;33046;52.270;6.832;2023-07-29T04:07:41;4.78;;;4.38;;
47309;SDS011;33046;52.270;6.832;2023-07-29T04:09:49;4.35;;;4.05;;
47309;SDS011;33046;52.270;6.832;2023-07-29T04:11:57;6.05;;;4.60;;
47309;SDS011;33046;52.270;6.832;2023-07-29T04:14:04;4.75;;;4.35;;
47309;SDS011;33046;52.270;6.832;2023-07-29T04:16:11;5.43;;;4.90;;
47309;SDS011;33046;52.270;6.832;2023-07-29T04:18:18;4.53;;;4.13;;
47309;SDS011;33046;52.270;6.832;2023-07-29T04:20:26;5.60;;;5.13;;
47309;SDS011;33046;52.270;6.832;2023-07-29T04:22:33;5.30;;;4.80;;
47309;SDS011;33046;52.270;6.832;2023-07-29T04:24:40;5.88;;;4.40;;
47309;SDS011;33046;52.270;6.832;2023-07-29T04:26:47;6.10;;;4.85;;
47309;SDS011;33046;52.270;6.832;2023-07-29T04:28:55;5.35;;;4.95;;
47309;SDS011;33046;52.270;6.832;2023-07-29T04:31:02;4.45;;;4.05;;
47309;SDS011;33046;52.270;6.832;2023-07-29T04:33:09;5.20;;;4.70;;
47309;SDS011;33046;52.270;6.832;2023-07-29T04:35:16;5.15;;;4.70;;
47309;SDS011;33046;52.270;6.832;2023-07-29T04:37:23;5.97;;;4.82;;
47309;SDS011;33046;52.270;6.832;2023-07-29T04:39:30;4.57;;;4.18;;
47309;SDS011;33046;52.270;6.832;2023-07-29T04:41:37;6.72;;;4.38;;
47309;SDS011;33046;52.270;6.832;2023-07-29T04:43:44;5.35;;;4.85;;
47309;SDS011;33046;52.270;6.832;2023-07-29T04:45:52;5.20;;;4.70;;
47309;SDS011;33046;52.270;6.832;2023-07-29T04:47:59;4.70;;;3.95;;
47309;SDS011;33046;52.270;6.832;2023-07-29T04:50:06;4.43;;;4.03;;
47309;SDS011;33046;52.270;6.832;2023-07-29T04:52:15;4.28;;;3.97;;
47309;SDS011;33046;52.270;6.832;2023-07-29T04:54:22;4.25;;;3.85;;
47309;SDS011;33046;52.270;6.832;2023-07-29T04:56:29;4.13;;;3.42;;
47309;SDS011;33046;52.270;6.832;2023-07-29T04:58:36;5.20;;;4.43;;
47309;SDS011;33046;52.270;6.832;2023-07-29T05:00:43;4.72;;;4.32;;
47309;SDS011;33046;52.270;6.832;2023-07-29T05:02:51;4.50;;;4.05;;
47309;SDS011;33046;52.270;6.832;2023-07-29T05:04:58;5.20;;;4.70;;
47309;SDS011;33046;52.270;6.832;2023-07-29T05:07:05;5.78;;;4.63;;
47309;SDS011;33046;52.270;6.832;2023-07-29T05:09:12;4.43;;;4.03;;
47309;SDS011;33046;52.270;6.832;2023-07-29T05:11:20;4.60;;;4.05;;
47309;SDS011;33046;52.270;6.832;2023-07-29T05:13:27;4.82;;;4.40;;
47309;SDS011;33046;52.270;6.832;2023-07-29T05:15:34;4.93;;;4.53;;
47309;SDS011;33046;52.270;6.832;2023-07-29T05:17:40;5.70;;;4.22;;
47309;SDS011;33046;52.270;6.832;2023-07-29T05:19:49;4.38;;;3.97;;
47309;SDS011;33046;52.270;6.832;2023-07-29T05:21:56;5.55;;;4.57;;
47309;SDS011;33046;52.270;6.832;2023-07-29T05:24:04;4.85;;;4.30;;
47309;SDS011;33046;52.270;6.832;2023-07-29T05:26:11;4.68;;;4.25;;
47309;SDS011;33046;52.270;6.832;2023-07-29T05:28:18;4.18;;;3.78;;
47309;SDS011;33046;52.270;6.832;2023-07-29T05:30:24;5.47;;;4.97;;
47309;SDS011;33046;52.270;6.832;2023-07-29T05:32:31;5.10;;;4.65;;
47309;SDS011;33046;52.270;6.832;2023-07-29T05:34:38;5.10;;;4.60;;
47309;SDS011;33046;52.270;6.832;2023-07-29T05:36:46;5.40;;;4.10;;
47309;SDS011;33046;52.270;6.832;2023-07-29T05:38:53;5.43;;;4.95;;
47309;SDS011;33046;52.270;6.832;2023-07-29T05:41:00;6.05;;;4.75;;
47309;SDS011;33046;52.270;6.832;2023-07-29T05:43:07;4.45;;;4.05;;
47309;SDS011;33046;52.270;6.832;2023-07-29T05:45:14;9.52;;;4.93;;
47309;SDS011;33046;52.270;6.832;2023-07-29T05:47:21;5.28;;;4.78;;
47309;SDS011;33046;52.270;6.832;2023-07-29T05:49:28;5.10;;;4.60;;
47309;SDS011;33046;52.270;6.832;2023-07-29T05:51:35;5.05;;;4.55;;
47309;SDS011;33046;52.270;6.832;2023-07-29T05:53:44;5.50;;;4.57;;
47309;SDS011;33046;52.270;6.832;2023-07-29T05:55:51;5.35;;;4.72;;
47309;SDS011;33046;52.270;6.832;2023-07-29T05:57:58;5.30;;;4.10;;
47309;SDS011;33046;52.270;6.832;2023-07-29T06:00:05;4.95;;;4.13;;
47309;SDS011;33046;52.270;6.832;2023-07-29T06:02:18;4.90;;;4.40;;
47309;SDS011;33046;52.270;6.832;2023-07-29T06:04:25;4.97;;;4.57;;
47309;SDS011;33046;52.270;6.832;2023-07-29T06:06:31;5.15;;;3.67;;
47309;SDS011;33046;52.270;6.832;2023-07-29T06:08:38;5.00;;;4.25;;
47309;SDS011;33046;52.270;6.832;2023-07-29T06:10:47;5.00;;;4.50;;
47309;SDS011;33046;52.270;6.832;2023-07-29T06:12:53;4.00;;;3.60;;
47309;SDS011;33046;52.270;6.832;2023-07-29T06:15:00;3.53;;;3.22;;
47309;SDS011;33046;52.270;6.832;2023-07-29T06:17:07;6.28;;;3.30;;
47309;SDS011;33046;52.270;6.832;2023-07-29T06:19:14;5.43;;;3.70;;
47309;SDS011;33046;52.270;6.832;2023-07-29T06:21:21;6.15;;;3.60;;
47309;SDS011;33046;52.270;6.832;2023-07-29T06:23:29;4.28;;;3.05;;
47309;SDS011;33046;52.270;6.832;2023-07-29T06:25:35;3.35;;;3.05;;
47309;SDS011;33046;52.270;6.832;2023-07-29T06:27:44;3.53;;;2.75;;
47309;SDS011;33046;52.270;6.832;2023-07-29T06:29:50;4.10;;;3.22;;
47309;SDS011;33046;52.270;6.832;2023-07-29T06:31:58;3.35;;;2.47;;
47309;SDS011;33046;52.270;6.832;2023-07-29T06:34:04;4.07;;;2.83;;
47309;SDS011;33046;52.270;6.832;2023-07-29T06:36:11;5.13;;;2.30;;
47309;SDS011;33046;52.270;6.832;2023-07-29T06:38:18;4.72;;;2.25;;
47309;SDS011;33046;52.270;6.832;2023-07-29T06:40:25;2.72;;;2.10;;
47309;SDS011;33046;52.270;6.832;2023-07-29T06:42:32;2.83;;;2.20;;
47309;SDS011;33046;52.270;6.832;2023-07-29T06:44:40;2.85;;;2.20;;
47309;SDS011;33046;52.270;6.832;2023-07-29T06:46:47;3.25;;;2.08;;
47309;SDS011;33046;52.270;6.832;2023-07-29T06:48:54;2.72;;;2.33;;
47309;SDS011;33046;52.270;6.832;2023-07-29T06:51:01;4.68;;;1.88;;
47309;SDS011;33046;52.270;6.832;2023-07-29T06:53:08;2.60;;;1.90;;
47309;SDS011;33046;52.270;6.832;2023-07-29T06:55:15;4.13;;;1.75;;
47309;SDS011;33046;52.270;6.832;2023-07-29T06:57:22;3.03;;;1.63;;
47309;SDS011;33046;52.270;6.832;2023-07-29T06:59:29;4.40;;;1.77;;
47309;SDS011;33046;52.270;6.832;2023-07-29T07:01:37;3.25;;;1.95;;
47309;SDS011;33046;52.270;6.832;2023-07-29T07:03:44;2.05;;;1.48;;
47309;SDS011;33046;52.270;6.832;2023-07-29T07:05:51;3.95;;;1.60;;
47309;SDS011;33046;52.270;6.832;2023-07-29T07:07:58;2.85;;;1.70;;
47309;SDS011;33046;52.270;6.832;2023-07-29T07:10:05;2.90;;;1.40;;
47309;SDS011;33046;52.270;6.832;2023-07-29T07:12:12;4.63;;;1.48;;
47309;SDS011;33046;52.270;6.832;2023-07-29T07:14:19;2.92;;;1.55;;
47309;SDS011;33046;52.270;6.832;2023-07-29T07:16:26;2.20;;;1.50;;
47309;SDS011;33046;52.270;6.832;2023-07-29T07:18:34;2.40;;;1.60;;
47309;SDS011;33046;52.270;6.832;2023-07-29T07:20:41;2.15;;;1.27;;
47309;SDS011;33046;52.270;6.832;2023-07-29T07:22:48;2.53;;;1.40;;
47309;SDS011;33046;52.270;6.832;2023-07-29T07:24:55;3.92;;;1.95;;
47309;SDS011;33046;52.270;6.832;2023-07-29T07:27:02;2.92;;;1.20;;
47309;SDS011;33046;52.270;6.832;2023-07-29T07:29:09;3.00;;;1.50;;
47309;SDS011;33046;52.270;6.832;2023-07-29T07:31:15;2.75;;;1.92;;
47309;SDS011;33046;52.270;6.832;2023-07-29T07:33:23;2.63;;;1.73;;
47309;SDS011;33046;52.270;6.832;2023-07-29T07:35:32;2.30;;;1.40;;
47309;SDS011;33046;52.270;6.832;2023-07-29T07:37:39;7.18;;;1.80;;
47309;SDS011;33046;52.270;6.832;2023-07-29T07:39:45;2.67;;;1.40;;
47309;SDS011;33046;52.270;6.832;2023-07-29T07:41:52;2.13;;;1.20;;
47309;SDS011;33046;52.270;6.832;2023-07-29T07:43:59;2.03;;;1.40;;
47309;SDS011;33046;52.270;6.832;2023-07-29T07:46:06;3.33;;;1.95;;
47309;SDS011;33046;52.270;6.832;2023-07-29T07:48:13;4.63;;;1.65;;
47309;SDS011;33046;52.270;6.832;2023-07-29T07:50:20;2.13;;;1.33;;
47309;SDS011;33046;52.270;6.832;2023-07-29T07:52:28;3.42;;;1.95;;
47309;SDS011;33046;52.270;6.832;2023-07-29T07:54:35;3.80;;;1.70;;
47309;SDS011;33046;52.270;6.832;2023-07-29T07:56:42;2.45;;;1.50;;
47309;SDS011;33046;52.270;6.832;2023-07-29T07:58:49;4.70;;;1.77;;
47309;SDS011;33046;52.270;6.832;2023-07-29T08:01:00;4.50;;;2.50;;
47309;SDS011;33046;52.270;6.832;2023-07-29T08:03:07;4.30;;;1.60;;
47309;SDS011;33046;52.270;6.832;2023-07-29T08:05:14;3.90;;;1.73;;
47309;SDS011;33046;52.270;6.832;2023-07-29T08:07:21;2.50;;;1.52;;
47309;SDS011;33046;52.270;6.832;2023-07-29T08:09:29;2.38;;;1.60;;
47309;SDS011;33046;52.270;6.832;2023-07-29T08:11:36;3.85;;;1.70;;
47309;SDS011;33046;52.270;6.832;2023-07-29T08:13:43;2.70;;;2.05;;
47309;SDS011;33046;52.270;6.832;2023-07-29T08:15:51;2.63;;;1.85;;
47309;SDS011;33046;52.270;6.832;2023-07-29T08:17:58;2.72;;;1.90;;
47309;SDS011;33046;52.270;6.832;2023-07-29T08:20:06;3.60;;;1.75;;
47309;SDS011;33046;52.270;6.832;2023-07-29T08:22:13;2.58;;;1.60;;
47309;SDS011;33046;52.270;6.832;2023-07-29T08:24:20;2.40;;;1.55;;
47309;SDS011;33046;52.270;6.832;2023-07-29T08:26:28;2.20;;;1.42;;
47309;SDS011;33046;52.270;6.832;2023-07-29T08:28:36;5.20;;;2.17;;
47309;SDS011;33046;52.270;6.832;2023-07-29T08:30:44;3.10;;;1.50;;
47309;SDS011;33046;52.270;6.832;2023-07-29T08:32:51;4.10;;;1.52;;
47309;SDS011;33046;52.270;6.832;2023-07-29T08:34:58;2.08;;;1.60;;
47309;SDS011;33046;52.270;6.832;2023-07-29T08:37:05;3.78;;;1.70;;
47309;SDS011;33046;52.270;6.832;2023-07-29T08:39:12;2.90;;;1.38;;
47309;SDS011;33046;52.270;6.832;2023-07-29T08:41:19;3.72;;;1.75;;
47309;SDS011;33046;52.270;6.832;2023-07-29T08:43:31;3.83;;;1.65;;
47309;SDS011;33046;52.270;6.832;2023-07-29T08:45:39;2.70;;;1.58;;
47309;SDS011;33046;52.270;6.832;2023-07-29T08:47:46;3.55;;;1.60;;
47309;SDS011;33046;52.270;6.832;2023-07-29T08:49:56;3.08;;;1.85;;
47309;SDS011;33046;52.270;6.832;2023-07-29T08:52:05;3.30;;;1.40;;
47309;SDS011;33046;52.270;6.832;2023-07-29T08:54:13;4.63;;;1.92;;
47309;SDS011;33046;52.270;6.832;2023-07-29T08:56:20;2.78;;;1.23;;
47309;SDS011;33046;52.270;6.832;2023-07-29T08:58:27;3.28;;;2.30;;
47309;SDS011;33046;52.270;6.832;2023-07-29T09:00:36;4.88;;;1.40;;
47309;SDS011;33046;52.270;6.832;2023-07-29T09:02:45;2.78;;;1.92;;
47309;SDS011;33046;52.270;6.832;2023-07-29T09:04:52;2.40;;;1.63;;
47309;SDS011;33046;52.270;6.832;2023-07-29T09:06:58;5.22;;;1.77;;
47309;SDS011;33046;52.270;6.832;2023-07-29T09:09:07;2.83;;;1.17;;
47309;SDS011;33046;52.270;6.832;2023-07-29T09:11:14;3.90;;;1.40;;
47309;SDS011;33046;52.270;6.832;2023-07-29T09:13:21;3.55;;;1.35;;
47309;SDS011;33046;52.270;6.832;2023-07-29T09:15:28;2.10;;;1.35;;
47309;SDS011;33046;52.270;6.832;2023-07-29T09:17:37;3.28;;;1.15;;
47309;SDS011;33046;52.270;6.832;2023-07-29T09:19:47;2.20;;;1.27;;
47309;SDS011;33046;52.270;6.832;2023-07-29T09:21:54;1.98;;;1.00;;
47309;SDS011;33046;52.270;6.832;2023-07-29T09:24:02;2.28;;;0.88;;
47309;SDS011;33046;52.270;6.832;2023-07-29T09:26:10;1.42;;;0.90;;
47309;SDS011;33046;52.270;6.832;2023-07-29T09:28:18;1.88;;;0.70;;
47309;SDS011;33046;52.270;6.832;2023-07-29T09:30:26;1.90;;;1.05;;
47309;SDS011;33046;52.270;6.832;2023-07-29T09:32:33;3.83;;;1.20;;
47309;SDS011;33046;52.270;6.832;2023-07-29T09:34:42;2.80;;;1.20;;
47309;SDS011;33046;52.270;6.832;2023-07-29T09:36:49;1.90;;;1.00;;
47309;SDS011;33046;52.270;6.832;2023-07-29T09:38:57;2.55;;;1.55;;
47309;SDS011;33046;52.270;6.832;2023-07-29T09:41:04;1.58;;;0.80;;
47309;SDS011;33046;52.270;6.832;2023-07-29T09:43:11;1.92;;;0.90;;
47309;SDS011;33046;52.270;6.832;2023-07-29T09:45:21;1.27;;;0.80;;
47309;SDS011;33046;52.270;6.832;2023-07-29T09:47:29;3.55;;;1.00;;
47309;SDS011;33046;52.270;6.832;2023-07-29T09:49:36;2.70;;;1.20;;
47309;SDS011;33046;52.270;6.832;2023-07-29T09:51:44;1.73;;;0.80;;
47309;SDS011;33046;52.270;6.832;2023-07-29T09:53:51;2.28;;;1.08;;
47309;SDS011;33046;52.270;6.832;2023-07-29T09:55:58;1.30;;;1.00;;
47309;SDS011;33046;52.270;6.832;2023-07-29T09:58:05;1.30;;;0.85;;
47309;SDS011;33046;52.270;6.832;2023-07-29T10:00:12;1.77;;;0.88;;
47309;SDS011;33046;52.270;6.832;2023-07-29T10:02:19;3.97;;;1.08;;
47309;SDS011;33046;52.270;6.832;2023-07-29T10:04:27;1.63;;;1.00;;
47309;SDS011;33046;52.270;6.832;2023-07-29T10:06:36;1.50;;;0.80;;
47309;SDS011;33046;52.270;6.832;2023-07-29T10:08:45;2.60;;;1.08;;
47309;SDS011;33046;52.270;6.832;2023-07-29T10:10:55;1.60;;;1.08;;
47309;SDS011;33046;52.270;6.832;2023-07-29T10:13:04;12.70;;;2.10;;
47309;SDS011;33046;52.270;6.832;2023-07-29T10:15:12;1.65;;;0.82;;
47309;SDS011;33046;52.270;6.832;2023-07-29T10:17:19;1.25;;;0.70;;
47309;SDS011;33046;52.270;6.832;2023-07-29T10:19:27;1.45;;;0.70;;
47309;SDS011;33046;52.270;6.832;2023-07-29T10:21:35;1.30;;;0.70;;
47309;SDS011;33046;52.270;6.832;2023-07-29T10:23:47;2.70;;;0.70;;
47309;SDS011;33046;52.270;6.832;2023-07-29T10:25:57;1.23;;;0.90;;
47309;SDS011;33046;52.270;6.832;2023-07-29T10:28:08;3.17;;;1.23;;
47309;SDS011;33046;52.270;6.832;2023-07-29T10:30:18;2.08;;;0.90;;
47309;SDS011;33046;52.270;6.832;2023-07-29T10:32:25;2.35;;;0.70;;
47309;SDS011;33046;52.270;6.832;2023-07-29T10:34:35;2.03;;;0.90;;
47309;SDS011;33046;52.270;6.832;2023-07-29T10:36:43;1.90;;;1.05;;
47309;SDS011;33046;52.270;6.832;2023-07-29T10:38:53;1.77;;;1.20;;
47309;SDS011;33046;52.270;6.832;2023-07-29T10:41:00;0.93;;;0.63;;
47309;SDS011;33046;52.270;6.832;2023-07-29T10:43:09;1.30;;;0.70;;
47309;SDS011;33046;52.270;6.832;2023-07-29T10:45:17;1.52;;;0.70;;
47309;SDS011;33046;52.270;6.832;2023-07-29T10:47:25;1.45;;;0.95;;
47309;SDS011;33046;52.270;6.832;2023-07-29T10:49:35;2.95;;;0.90;;
47309;SDS011;33046;52.270;6.832;2023-07-29T10:51:41;1.83;;;1.10;;
47309;SDS011;33046;52.270;6.832;2023-07-29T10:53:52;1.90;;;0.80;;
47309;SDS011;33046;52.270;6.832;2023-07-29T10:56:00;1.10;;;0.73;;
47309;SDS011;33046;52.270;6.832;2023-07-29T10:58:11;1.85;;;0.80;;
47309;SDS011;33046;52.270;6.832;2023-07-29T11:00:20;2.13;;;1.10;;
47309;SDS011;33046;52.270;6.832;2023-07-29T11:02:28;1.20;;;0.70;;
47309;SDS011;33046;52.270;6.832;2023-07-29T11:04:45;1.40;;;0.90;;
47309;SDS011;33046;52.270;6.832;2023-07-29T11:09:40;1.80;;;0.73;;
47309;SDS011;33046;52.270;6.832;2023-07-29T11:11:49;3.40;;;0.60;;
47309;SDS011;33046;52.270;6.832;2023-07-29T11:13:56;0.77;;;0.70;;
47309;SDS011;33046;52.270;6.832;2023-07-29T11:16:06;1.65;;;0.93;;
47309;SDS011;33046;52.270;6.832;2023-07-29T11:18:13;2.45;;;0.90;;
47309;SDS011;33046;52.270;6.832;2023-07-29T11:20:21;1.50;;;0.90;;
47309;SDS011;33046;52.270;6.832;2023-07-29T11:22:29;1.25;;;0.98;;
47309;SDS011;33046;52.270;6.832;2023-07-29T11:24:37;0.82;;;0.70;;
47309;SDS011;33046;52.270;6.832;2023-07-29T11:26:49;1.20;;;0.90;;
47309;SDS011;33046;52.270;6.832;2023-07-29T11:28:56;1.90;;;0.80;;
47309;SDS011;33046;52.270;6.832;2023-07-29T11:31:02;3.10;;;1.23;;
47309;SDS011;33046;52.270;6.832;2023-07-29T11:33:09;2.88;;;0.90;;
47309;SDS011;33046;52.270;6.832;2023-07-29T11:35:17;1.75;;;1.10;;
47309;SDS011;33046;52.270;6.832;2023-07-29T11:37:24;1.42;;;0.80;;
47309;SDS011;33046;52.270;6.832;2023-07-29T11:39:31;1.65;;;0.80;;
47309;SDS011;33046;52.270;6.832;2023-07-29T11:41:40;1.23;;;0.80;;
47309;SDS011;33046;52.270;6.832;2023-07-29T11:43:48;1.73;;;0.80;;
47309;SDS011;33046;52.270;6.832;2023-07-29T11:45:55;1.10;;;0.70;;
47309;SDS011;33046;52.270;6.832;2023-07-29T11:48:02;2.35;;;0.70;;
47309;SDS011;33046;52.270;6.832;2023-07-29T11:50:10;1.20;;;0.68;;
47309;SDS011;33046;52.270;6.832;2023-07-29T11:52:17;3.13;;;0.90;;
47309;SDS011;33046;52.270;6.832;2023-07-29T11:54:25;1.45;;;0.60;;
47309;SDS011;33046;52.270;6.832;2023-07-29T11:56:32;1.58;;;0.70;;
47309;SDS011;33046;52.270;6.832;2023-07-29T11:58:40;1.83;;;0.50;;
47309;SDS011;33046;52.270;6.832;2023-07-29T12:00:48;1.00;;;0.63;;
47309;SDS011;33046;52.270;6.832;2023-07-29T12:02:55;1.77;;;0.60;;
47309;SDS011;33046;52.270;6.832;2023-07-29T12:05:02;1.08;;;0.60;;
47309;SDS011;33046;52.270;6.832;2023-07-29T12:07:10;1.17;;;0.50;;
47309;SDS011;33046;52.270;6.832;2023-07-29T12:09:18;0.80;;;0.50;;
47309;SDS011;33046;52.270;6.832;2023-07-29T12:11:26;1.20;;;0.60;;
47309;SDS011;33046;52.270;6.832;2023-07-29T12:13:33;1.38;;;0.70;;
47309;SDS011;33046;52.270;6.832;2023-07-29T12:15:41;1.02;;;0.60;;
47309;SDS011;33046;52.270;6.832;2023-07-29T12:17:48;0.73;;;0.50;;
47309;SDS011;33046;52.270;6.832;2023-07-29T12:19:58;1.38;;;0.50;;
47309;SDS011;33046;52.270;6.832;2023-07-29T12:22:06;1.33;;;0.50;;
47309;SDS011;33046;52.270;6.832;2023-07-29T12:24:13;0.95;;;0.40;;
47309;SDS011;33046;52.270;6.832;2023-07-29T12:26:21;2.85;;;0.60;;
47309;SDS011;33046;52.270;6.832;2023-07-29T12:28:33;1.00;;;0.77;;
47309;SDS011;33046;52.270;6.832;2023-07-29T12:30:45;1.08;;;0.70;;
47309;SDS011;33046;52.270;6.832;2023-07-29T12:32:51;1.23;;;0.60;;
47309;SDS011;33046;52.270;6.832;2023-07-29T12:34:58;1.35;;;0.80;;
47309;SDS011;33046;52.270;6.832;2023-07-29T12:37:05;3.28;;;0.70;;
47309;SDS011;33046;52.270;6.832;2023-07-29T12:39:17;0.73;;;0.60;;
47309;SDS011;33046;52.270;6.832;2023-07-29T12:41:25;2.28;;;0.98;;
47309;SDS011;33046;52.270;6.832;2023-07-29T12:43:31;1.67;;;0.85;;
47309;SDS011;33046;52.270;6.832;2023-07-29T12:45:38;1.55;;;0.60;;
47309;SDS011;33046;52.270;6.832;2023-07-29T12:47:47;1.15;;;0.70;;
47309;SDS011;33046;52.270;6.832;2023-07-29T12:49:54;2.17;;;0.80;;
47309;SDS011;33046;52.270;6.832;2023-07-29T12:52:00;3.25;;;0.88;;